Time,TemperatureF,DewpointF,PressureIn,WindDirection,WindDirectionDegrees,WindSpeedMPH,WindSpeedGustMPH,Humidity,HourlyPrecipIn,Conditions,Clouds,dailyrainin,SoftwareType,DateUTC
2013-04-08 00:02:00,40.8,28.8,29.94,South,170,0.0,4.5,62,0.00,,---,0.00,VWS V14.01,2013-04-07 22:02:00,
2013-04-08 00:07:00,40.8,28.8,29.94,South,170,0.0,0.0,62,0.00,,---,0.00,VWS V14.01,2013-04-07 22:07:00,
2013-04-08 00:12:00,41.2,29.2,29.94,South,170,2.7,3.6,62,0.00,,---,0.00,VWS V14.01,2013-04-07 22:12:00,
2013-04-08 00:17:00,41.0,29.0,29.94,South,170,4.0,4.5,62,0.00,,---,0.00,VWS V14.01,2013-04-07 22:17:00,
2013-04-08 00:22:00,40.6,28.3,29.94,South,170,2.7,3.6,61,0.00,,---,0.00,VWS V14.01,2013-04-07 22:22:00,
2013-04-08 00:27:00,40.5,28.5,29.94,South,171,0.0,4.5,62,0.00,,---,0.00,VWS V14.01,2013-04-07 22:27:00,
2013-04-08 00:32:00,40.5,28.5,29.94,South,171,0.0,0.0,62,0.00,,---,0.00,VWS V14.01,2013-04-07 22:32:00,
2013-04-08 00:37:00,40.3,28.3,29.91,South,171,0.0,2.7,62,0.00,,---,0.00,VWS V14.01,2013-04-07 22:37:00,
2013-04-08 00:43:00,40.3,28.3,29.91,South,171,0.0,2.7,62,0.00,,---,0.00,VWS V14.01,2013-04-07 22:43:00,
2013-04-08 00:48:00,40.3,28.3,29.91,South,171,0.0,0.0,62,0.00,,---,0.00,VWS V14.01,2013-04-07 22:48:00,
2013-04-08 00:53:00,40.3,28.3,29.91,South,171,0.0,0.0,62,0.00,,---,0.00,VWS V14.01,2013-04-07 22:53:00,
2013-04-08 00:58:00,40.3,28.3,29.91,South,171,0.0,0.0,62,0.00,,---,0.00,VWS V14.01,2013-04-07 22:58:00,
2013-04-08 01:03:00,40.3,28.3,29.91,South,171,0.0,0.0,62,0.00,,---,0.00,VWS V14.01,2013-04-07 23:03:00,
2013-04-08 01:08:00,40.3,28.3,29.91,South,171,0.0,0.0,62,0.00,,---,0.00,VWS V14.01,2013-04-07 23:08:00,
2013-04-08 01:13:00,40.3,27.9,29.91,South,171,3.1,3.1,61,0.00,,---,0.00,VWS V14.01,2013-04-07 23:13:00,
2013-04-08 01:18:00,40.1,28.1,29.91,South,171,0.0,0.0,62,0.00,,---,0.00,VWS V14.01,2013-04-07 23:18:00,
2013-04-08 01:23:00,40.1,28.1,29.91,South,171,0.0,0.0,62,0.00,,---,0.00,VWS V14.01,2013-04-07 23:23:00,
2013-04-08 01:28:00,40.1,28.1,29.91,South,171,0.0,2.7,62,0.00,,---,0.00,VWS V14.01,2013-04-07 23:28:00,
2013-04-08 01:33:00,40.1,28.1,29.91,South,171,0.0,0.0,62,0.00,,---,0.00,VWS V14.01,2013-04-07 23:33:00,
2013-04-08 01:38:00,40.3,28.3,29.91,South,171,0.0,0.0,62,0.00,,---,0.00,VWS V14.01,2013-04-07 23:38:00,
2013-04-08 01:43:00,40.1,28.1,29.91,South,171,0.0,0.0,62,0.00,,---,0.00,VWS V14.01,2013-04-07 23:43:00,
2013-04-08 01:48:00,40.1,28.1,29.91,South,171,0.0,0.0,62,0.00,,---,0.00,VWS V14.01,2013-04-07 23:48:00,
2013-04-08 01:53:00,40.1,28.1,29.91,South,171,0.0,0.0,62,0.00,,---,0.00,VWS V14.01,2013-04-07 23:53:00,
2013-04-08 01:58:00,40.3,28.3,29.91,South,171,0.0,0.0,62,0.00,,---,0.00,VWS V14.01,2013-04-07 23:58:00,
2013-04-08 02:03:00,40.1,28.1,29.91,South,171,2.7,3.1,62,0.00,,---,0.00,VWS V14.01,2013-04-08 00:03:00,
2013-04-08 02:08:00,39.9,27.6,29.91,South,171,3.6,3.6,61,0.00,,---,0.00,VWS V14.01,2013-04-08 00:08:00,
2013-04-08 02:13:00,39.9,27.2,29.91,South,171,0.0,3.6,60,0.00,,---,0.00,VWS V14.01,2013-04-08 00:13:00,
2013-04-08 02:18:00,39.7,26.6,29.91,South,171,0.0,0.0,59,0.00,,---,0.00,VWS V14.01,2013-04-08 00:18:00,
2013-04-08 02:23:00,39.7,26.2,29.91,South,171,4.0,4.5,58,0.00,,---,0.00,VWS V14.01,2013-04-08 00:23:00,
2013-04-08 02:28:00,39.7,25.8,29.91,South,171,0.0,2.7,57,0.00,,---,0.00,VWS V14.01,2013-04-08 00:28:00,
2013-04-08 02:33:00,39.6,25.2,29.91,South,171,0.0,0.0,56,0.00,,---,0.00,VWS V14.01,2013-04-08 00:33:00,
2013-04-08 02:38:00,39.4,25.0,29.91,South,171,0.0,0.0,56,0.00,,---,0.00,VWS V14.01,2013-04-08 00:38:00,
2013-04-08 02:43:00,39.6,24.7,29.91,South,171,0.0,0.0,55,0.00,,---,0.00,VWS V14.01,2013-04-08 00:43:00,
2013-04-08 02:49:00,39.6,24.7,29.91,South,171,0.0,2.7,55,0.00,,---,0.00,VWS V14.01,2013-04-08 00:49:00,
2013-04-08 02:54:00,39.4,24.1,29.91,South,171,0.0,0.0,54,0.00,,---,0.00,VWS V14.01,2013-04-08 00:54:00,
2013-04-08 02:59:00,39.4,24.1,29.91,South,171,2.7,2.7,54,0.00,,---,0.00,VWS V14.01,2013-04-08 00:59:00,
2013-04-08 03:04:00,39.4,23.7,29.91,South,171,0.0,0.0,53,0.00,,---,0.00,VWS V14.01,2013-04-08 01:04:00,
2013-04-08 03:09:00,39.2,23.5,29.91,South,171,0.0,0.0,53,0.00,,---,0.00,VWS V14.01,2013-04-08 01:09:00,
2013-04-08 03:14:00,39.2,23.5,29.91,South,171,3.1,3.1,53,0.00,,---,0.00,VWS V14.01,2013-04-08 01:14:00,
2013-04-08 03:19:00,39.2,23.1,29.91,South,171,0.0,3.1,52,0.00,,---,0.00,VWS V14.01,2013-04-08 01:19:00,
2013-04-08 03:24:00,39.2,23.1,29.91,South,171,3.1,3.1,52,0.00,,---,0.00,VWS V14.01,2013-04-08 01:24:00,
2013-04-08 03:29:00,39.2,23.1,29.91,South,171,0.0,2.7,52,0.00,,---,0.00,VWS V14.01,2013-04-08 01:29:00,
2013-04-08 03:34:00,39.2,23.1,29.91,South,171,0.0,0.0,52,0.00,,---,0.00,VWS V14.01,2013-04-08 01:34:00,
2013-04-08 03:39:00,39.2,23.1,29.88,South,171,2.7,2.7,52,0.00,,---,0.00,VWS V14.01,2013-04-08 01:39:00,
2013-04-08 03:44:00,39.0,22.9,29.88,South,171,3.6,3.6,52,0.00,,---,0.00,VWS V14.01,2013-04-08 01:44:00,
2013-04-08 03:49:00,39.0,22.9,29.88,South,171,0.0,3.1,52,0.00,,---,0.00,VWS V14.01,2013-04-08 01:49:00,
2013-04-08 03:54:00,38.8,22.7,29.91,South,171,4.0,5.8,52,0.00,,---,0.00,VWS V14.01,2013-04-08 01:54:00,
2013-04-08 03:59:00,38.8,22.7,29.91,SE,144,5.4,5.8,52,0.00,,---,0.00,VWS V14.01,2013-04-08 01:59:00,
2013-04-08 04:04:00,38.7,22.6,29.91,SSE,164,0.0,0.0,52,0.00,,---,0.00,VWS V14.01,2013-04-08 02:04:00,
2013-04-08 04:09:00,38.7,22.6,29.88,SSE,164,0.0,0.0,52,0.00,,---,0.00,VWS V14.01,2013-04-08 02:09:00,
2013-04-08 04:14:00,38.5,22.4,29.88,SSE,164,3.1,3.1,52,0.00,,---,0.00,VWS V14.01,2013-04-08 02:14:00,
2013-04-08 04:19:00,38.5,22.4,29.88,South,181,0.0,2.7,52,0.00,,---,0.00,VWS V14.01,2013-04-08 02:19:00,
2013-04-08 04:24:00,38.5,22.4,29.88,South,181,0.0,2.7,52,0.00,,---,0.00,VWS V14.01,2013-04-08 02:24:00,
2013-04-08 04:29:00,38.5,22.4,29.88,South,180,0.0,0.0,52,0.00,,---,0.00,VWS V14.01,2013-04-08 02:29:00,
2013-04-08 04:35:00,38.7,22.6,29.88,WSW,249,3.6,4.0,52,0.00,,---,0.00,VWS V14.01,2013-04-08 02:35:00,
2013-04-08 04:40:00,38.8,23.2,29.88,WSW,249,3.1,3.1,53,0.00,,---,0.00,VWS V14.01,2013-04-08 02:40:00,
2013-04-08 04:45:00,38.8,23.2,29.88,WSW,249,2.7,3.1,53,0.00,,---,0.00,VWS V14.01,2013-04-08 02:45:00,
2013-04-08 04:50:00,38.7,23.0,29.88,WSW,249,0.0,0.0,53,0.00,,---,0.00,VWS V14.01,2013-04-08 02:50:00,
2013-04-08 04:55:00,38.7,23.0,29.88,NW,316,0.0,0.0,53,0.00,,---,0.00,VWS V14.01,2013-04-08 02:55:00,
2013-04-08 05:00:00,38.5,22.9,29.88,NW,325,3.6,3.6,53,0.00,,---,0.00,VWS V14.01,2013-04-08 03:00:00,
2013-04-08 05:06:00,38.5,22.4,29.88,NNW,336,0.0,2.7,52,0.00,,---,0.00,VWS V14.01,2013-04-08 03:06:00,
2013-04-08 05:11:00,38.5,22.4,29.88,NNW,335,3.1,4.5,52,0.00,,---,0.00,VWS V14.01,2013-04-08 03:11:00,
2013-04-08 05:16:00,38.3,22.2,29.88,NNW,335,2.7,4.5,52,0.00,,---,0.00,VWS V14.01,2013-04-08 03:16:00,
2013-04-08 05:21:00,38.5,21.9,29.88,NNW,334,4.0,4.0,51,0.00,,---,0.00,VWS V14.01,2013-04-08 03:21:00,
2013-04-08 05:26:00,38.5,21.9,29.88,NNW,333,0.0,3.6,51,0.00,,---,0.00,VWS V14.01,2013-04-08 03:26:00,
2013-04-08 05:31:00,38.5,21.9,29.88,WNW,302,4.5,4.9,51,0.00,,---,0.00,VWS V14.01,2013-04-08 03:31:00,
2013-04-08 05:36:00,38.7,22.6,29.88,WNW,284,3.1,3.6,52,0.00,,---,0.00,VWS V14.01,2013-04-08 03:36:00,
2013-04-08 05:41:00,38.8,23.2,29.88,WNW,284,3.6,4.0,53,0.00,,---,0.00,VWS V14.01,2013-04-08 03:41:00,
2013-04-08 05:46:00,38.8,23.2,29.88,WNW,284,2.7,2.7,53,0.00,,---,0.00,VWS V14.01,2013-04-08 03:46:00,
2013-04-08 05:51:00,38.8,23.6,29.88,WNW,284,0.0,0.0,54,0.00,,---,0.00,VWS V14.01,2013-04-08 03:51:00,
2013-04-08 05:56:00,38.8,24.1,29.88,WNW,284,0.0,0.0,55,0.00,,---,0.00,VWS V14.01,2013-04-08 03:56:00,
2013-04-08 06:00:00,39.0,24.2,29.88,WNW,284,2.7,3.1,55,0.00,,---,0.00,VWS V14.01,2013-04-08 04:00:00,
2013-04-08 06:01:00,39.0,24.2,29.88,WNW,284,3.1,3.1,55,0.00,,---,0.00,VWS V14.01,2013-04-08 04:01:00,
2013-04-08 06:07:00,39.0,24.7,29.88,WNW,284,0.0,0.0,56,0.00,,---,0.00,VWS V14.01,2013-04-08 04:07:00,
2013-04-08 06:12:00,39.0,24.7,29.88,WNW,284,3.6,3.6,56,0.00,,---,0.00,VWS V14.01,2013-04-08 04:12:00,
2013-04-08 06:17:00,39.2,25.3,29.88,WNW,284,0.0,0.0,57,0.00,,---,0.00,VWS V14.01,2013-04-08 04:17:00,
2013-04-08 06:22:00,39.2,25.7,29.88,WNW,284,2.7,2.7,58,0.00,,---,0.00,VWS V14.01,2013-04-08 04:22:00,
2013-04-08 06:27:00,39.2,25.7,29.88,WNW,284,2.7,3.1,58,0.00,,---,0.00,VWS V14.01,2013-04-08 04:27:00,
2013-04-08 06:32:00,39.2,26.1,29.88,WNW,284,0.0,2.7,59,0.00,,---,0.00,VWS V14.01,2013-04-08 04:32:00,
2013-04-08 06:37:00,39.2,26.1,29.88,WNW,284,0.0,0.0,59,0.00,,---,0.00,VWS V14.01,2013-04-08 04:37:00,
2013-04-08 06:42:00,39.6,26.8,29.88,WNW,284,0.0,0.0,60,0.00,,---,0.00,VWS V14.01,2013-04-08 04:42:00,
2013-04-08 06:47:00,39.9,27.6,29.88,WNW,284,0.0,2.7,61,0.00,,---,0.00,VWS V14.01,2013-04-08 04:47:00,
2013-04-08 06:52:00,39.9,27.6,29.88,WNW,284,0.0,0.0,61,0.00,,---,0.00,VWS V14.01,2013-04-08 04:52:00,
2013-04-08 06:57:00,40.1,27.8,29.88,WNW,284,0.0,0.0,61,0.00,,---,0.00,VWS V14.01,2013-04-08 04:57:00,
2013-04-08 07:02:00,40.1,27.8,29.88,WNW,284,2.7,3.1,61,0.00,,---,0.00,VWS V14.01,2013-04-08 05:02:00,
2013-04-08 07:07:00,40.3,28.3,29.88,WNW,284,3.1,3.1,62,0.00,,---,0.00,VWS V14.01,2013-04-08 05:07:00,
2013-04-08 07:12:00,40.3,28.3,29.88,WNW,284,3.6,3.6,62,0.00,,---,0.00,VWS V14.01,2013-04-08 05:12:00,
2013-04-08 07:17:00,40.5,28.5,29.88,WNW,284,3.1,3.6,62,0.00,,---,0.00,VWS V14.01,2013-04-08 05:17:00,
2013-04-08 07:22:00,40.5,28.5,29.88,WNW,284,3.1,3.6,62,0.00,,---,0.00,VWS V14.01,2013-04-08 05:22:00,
2013-04-08 07:27:00,40.1,27.8,29.88,WNW,284,2.7,3.6,61,0.00,,---,0.00,VWS V14.01,2013-04-08 05:27:00,
2013-04-08 07:32:00,39.7,27.0,29.88,WNW,294,3.1,3.6,60,0.00,,---,0.00,VWS V14.01,2013-04-08 05:32:00,
2013-04-08 07:37:00,39.9,26.8,29.88,NW,305,0.0,2.7,59,0.00,,---,0.00,VWS V14.01,2013-04-08 05:37:00,
2013-04-08 07:42:00,40.6,27.5,29.88,WNW,296,5.4,6.3,59,0.00,,---,0.00,VWS V14.01,2013-04-08 05:42:00,
2013-04-08 07:47:00,41.7,28.5,29.88,West,279,4.9,4.9,59,0.00,,---,0.00,VWS V14.01,2013-04-08 05:47:00,
2013-04-08 07:52:00,42.1,27.5,29.88,NW,315,5.8,5.8,56,0.00,,---,0.00,VWS V14.01,2013-04-08 05:52:00,
2013-04-08 07:57:00,41.2,25.8,29.88,NNW,331,3.6,4.0,54,0.00,,---,0.00,VWS V14.01,2013-04-08 05:57:00,
2013-04-08 08:02:00,41.0,24.3,29.88,WNW,300,4.5,6.9,51,0.00,,---,0.00,VWS V14.01,2013-04-08 06:02:00,
2013-04-08 08:07:00,40.8,23.1,29.88,NNW,328,5.4,6.7,49,0.00,,---,0.00,VWS V14.01,2013-04-08 06:07:00,
2013-04-08 08:12:00,40.6,21.5,29.88,ENE,67,3.6,4.9,46,0.00,,---,0.00,VWS V14.01,2013-04-08 06:12:00,
2013-04-08 08:17:00,41.5,22.3,29.88,NNE,16,4.5,6.3,46,0.00,,---,0.00,VWS V14.01,2013-04-08 06:17:00,
2013-04-08 08:22:00,41.9,22.1,29.88,SE,134,2.7,6.3,45,0.00,,---,0.00,VWS V14.01,2013-04-08 06:22:00,
2013-04-08 08:27:00,41.7,20.9,29.88,North,11,3.6,6.3,43,0.00,,---,0.00,VWS V14.01,2013-04-08 06:27:00,
2013-04-08 08:32:00,41.7,20.9,29.88,SSE,148,3.6,7.4,43,0.00,,---,0.00,VWS V14.01,2013-04-08 06:32:00,
2013-04-08 08:37:00,41.7,20.3,29.88,NNE,21,6.3,8.3,42,0.00,,---,0.00,VWS V14.01,2013-04-08 06:37:00,
2013-04-08 08:42:00,41.4,20.0,29.88,NNW,340,4.0,8.3,42,0.00,,---,0.00,VWS V14.01,2013-04-08 06:42:00,
2013-04-08 08:47:00,41.7,20.9,29.88,NNE,21,5.4,7.4,43,0.00,,---,0.00,VWS V14.01,2013-04-08 06:47:00,
2013-04-08 08:52:00,41.7,20.3,29.88,NE,54,4.0,8.7,42,0.00,,---,0.00,VWS V14.01,2013-04-08 06:52:00,
2013-04-08 08:57:00,41.9,19.9,29.88,SW,215,0.0,9.2,41,0.00,,---,0.00,VWS V14.01,2013-04-08 06:57:00,
2013-04-08 09:02:00,42.1,20.1,29.88,North,351,3.6,6.9,41,0.00,,---,0.00,VWS V14.01,2013-04-08 07:02:00,
2013-04-08 09:07:00,42.3,20.3,29.88,NW,307,4.0,4.9,41,0.00,,---,0.00,VWS V14.01,2013-04-08 07:07:00,
2013-04-08 09:12:00,43.2,21.6,29.88,North,9,3.1,5.8,42,0.00,,---,0.00,VWS V14.01,2013-04-08 07:12:00,
2013-04-08 09:17:00,43.3,21.2,29.88,North,5,2.7,6.7,41,0.00,,---,0.00,VWS V14.01,2013-04-08 07:17:00,
2013-04-08 09:22:00,43.3,20.6,29.88,ESE,107,3.6,8.3,40,0.00,,---,0.00,VWS V14.01,2013-04-08 07:22:00,
2013-04-08 09:27:00,43.7,21.0,29.88,SSE,155,8.7,10.1,40,0.00,,---,0.00,VWS V14.01,2013-04-08 07:27:00,
2013-04-08 09:32:00,44.2,21.5,29.88,ENE,70,5.8,5.8,40,0.00,,---,0.00,VWS V14.01,2013-04-08 07:32:00,
2013-04-08 09:37:00,44.4,21.6,29.88,SSE,147,4.9,5.4,40,0.00,,---,0.00,VWS V14.01,2013-04-08 07:37:00,
2013-04-08 09:42:00,44.8,22.0,29.88,SE,132,6.7,7.4,40,0.00,,---,0.00,VWS V14.01,2013-04-08 07:42:00,
2013-04-08 09:48:00,44.6,21.2,29.88,NE,47,6.3,6.9,39,0.00,,---,0.00,VWS V14.01,2013-04-08 07:48:00,
2013-04-08 09:53:00,44.8,21.4,29.88,SE,143,8.7,11.0,39,0.00,,---,0.00,VWS V14.01,2013-04-08 07:53:00,
2013-04-08 09:58:00,45.3,21.8,29.88,WSW,254,3.6,3.6,39,0.00,,---,0.00,VWS V14.01,2013-04-08 07:58:00,
2013-04-08 10:03:00,45.3,21.8,29.88,SE,138,7.4,13.4,39,0.00,,---,0.00,VWS V14.01,2013-04-08 08:03:00,
2013-04-08 10:08:00,45.5,21.4,29.88,SSE,153,6.3,12.5,38,0.00,,---,0.00,VWS V14.01,2013-04-08 08:08:00,
2013-04-08 10:13:00,45.1,21.1,29.88,SE,133,3.6,4.9,38,0.00,,---,0.00,VWS V14.01,2013-04-08 08:13:00,
2013-04-08 10:18:00,45.7,21.5,29.88,East,81,6.3,7.8,38,0.00,,---,0.00,VWS V14.01,2013-04-08 08:18:00,
2013-04-08 10:23:00,45.5,21.4,29.88,SE,146,9.6,12.1,38,0.00,,---,0.00,VWS V14.01,2013-04-08 08:23:00,
2013-04-08 10:28:00,45.9,21.7,29.88,SE,146,6.7,8.3,38,0.00,,---,0.00,VWS V14.01,2013-04-08 08:28:00,
2013-04-08 10:33:00,46.0,21.9,29.88,NNE,30,4.9,9.6,38,0.00,,---,0.00,VWS V14.01,2013-04-08 08:33:00,
2013-04-08 10:38:00,46.2,22.0,29.88,SE,132,6.3,6.7,38,0.00,,---,0.00,VWS V14.01,2013-04-08 08:38:00,
2013-04-08 10:43:00,46.8,22.5,29.88,SSE,159,6.9,6.9,38,0.00,,---,0.00,VWS V14.01,2013-04-08 08:43:00,
2013-04-08 10:48:00,47.3,22.4,29.88,SE,129,7.4,8.7,37,0.00,,---,0.00,VWS V14.01,2013-04-08 08:48:00,
2013-04-08 10:53:00,46.8,21.9,29.88,SE,128,6.7,6.7,37,0.00,,---,0.00,VWS V14.01,2013-04-08 08:53:00,
2013-04-08 10:58:00,46.6,21.7,29.88,North,5,0.0,3.6,37,0.00,,---,0.00,VWS V14.01,2013-04-08 08:58:00,
2013-04-08 11:03:00,46.8,21.9,29.88,SE,145,4.5,5.8,37,0.00,,---,0.00,VWS V14.01,2013-04-08 09:03:00,
2013-04-08 11:08:00,47.1,22.2,29.88,East,99,5.8,6.3,37,0.00,,---,0.00,VWS V14.01,2013-04-08 09:08:00,
2013-04-08 11:13:00,47.1,22.2,29.88,SE,146,2.7,2.7,37,0.00,,---,0.00,VWS V14.01,2013-04-08 09:13:00,
2013-04-08 11:18:00,47.3,22.4,29.88,ESE,114,6.7,7.4,37,0.00,,---,0.00,VWS V14.01,2013-04-08 09:18:00,
2013-04-08 11:23:00,47.3,22.4,29.88,North,351,4.9,4.9,37,0.00,,---,0.00,VWS V14.01,2013-04-08 09:23:00,
2013-04-08 11:28:00,47.1,22.2,29.88,WNW,303,4.0,5.4,37,0.00,,---,0.00,VWS V14.01,2013-04-08 09:28:00,
2013-04-08 11:33:00,47.1,22.2,29.88,East,90,4.0,4.0,37,0.00,,---,0.00,VWS V14.01,2013-04-08 09:33:00,
2013-04-08 11:38:00,47.5,22.5,29.88,SSE,166,4.9,5.8,37,0.00,,---,0.00,VWS V14.01,2013-04-08 09:38:00,
2013-04-08 11:43:00,48.4,23.3,29.88,WNW,303,2.7,3.6,37,0.00,,---,0.00,VWS V14.01,2013-04-08 09:43:00,
2013-04-08 11:48:00,49.1,23.3,29.88,SSE,164,4.0,4.5,36,0.00,,---,0.00,VWS V14.01,2013-04-08 09:48:00,
2013-04-08 11:53:00,48.7,23.0,29.88,NNE,12,0.0,4.0,36,0.00,,---,0.00,VWS V14.01,2013-04-08 09:53:00,
2013-04-08 11:58:00,47.7,21.4,29.88,NNW,331,4.9,6.3,35,0.00,,---,0.00,VWS V14.01,2013-04-08 09:58:00,
2013-04-08 12:03:00,47.1,21.6,29.88,West,273,0.0,3.6,36,0.00,,---,0.00,VWS V14.01,2013-04-08 10:03:00,
2013-04-08 12:08:00,47.5,21.9,29.88,ESE,113,0.0,3.6,36,0.00,,---,0.00,VWS V14.01,2013-04-08 10:08:00,
2013-04-08 12:13:00,47.7,22.0,29.88,WNW,295,7.4,7.4,36,0.00,,---,0.00,VWS V14.01,2013-04-08 10:13:00,
2013-04-08 12:18:00,49.3,23.5,29.88,West,277,5.8,6.3,36,0.00,,---,0.00,VWS V14.01,2013-04-08 10:18:00,
2013-04-08 12:24:00,50.5,24.6,29.88,NW,319,0.0,4.0,36,0.00,,---,0.00,VWS V14.01,2013-04-08 10:24:00,
2013-04-08 12:29:00,49.5,23.0,29.88,SSE,157,5.8,5.8,35,0.00,,---,0.00,VWS V14.01,2013-04-08 10:29:00,
2013-04-08 12:34:00,48.9,23.2,29.88,WNW,297,4.9,5.4,36,0.00,,---,0.00,VWS V14.01,2013-04-08 10:34:00,
2013-04-08 12:39:00,49.5,23.6,29.85,West,275,0.0,2.7,36,0.00,,---,0.00,VWS V14.01,2013-04-08 10:39:00,
2013-04-08 12:44:00,49.6,23.8,29.85,West,267,3.6,3.6,36,0.00,,---,0.00,VWS V14.01,2013-04-08 10:44:00,
2013-04-08 12:49:00,50.2,24.3,29.85,SW,234,0.0,0.0,36,0.00,,---,0.00,VWS V14.01,2013-04-08 10:49:00,
2013-04-08 12:54:00,50.4,24.4,29.85,WNW,286,2.7,3.6,36,0.00,,---,0.00,VWS V14.01,2013-04-08 10:54:00,
2013-04-08 12:59:00,50.7,24.8,29.85,WNW,285,9.2,9.6,36,0.00,,---,0.00,VWS V14.01,2013-04-08 10:59:00,
2013-04-08 13:04:00,50.9,24.9,29.85,SE,133,3.1,4.9,36,0.00,,---,0.00,VWS V14.01,2013-04-08 11:04:00,
2013-04-08 13:09:00,51.3,25.2,29.85,WNW,289,4.5,6.9,36,0.00,,---,0.00,VWS V14.01,2013-04-08 11:09:00,
2013-04-08 13:14:00,51.1,25.1,29.85,West,278,7.8,7.8,36,0.00,,---,0.00,VWS V14.01,2013-04-08 11:14:00,
2013-04-08 13:19:00,51.4,25.4,29.85,West,276,6.9,9.2,36,0.00,,---,0.00,VWS V14.01,2013-04-08 11:19:00,
2013-04-08 13:25:00,51.1,25.1,29.85,WNW,288,2.7,8.3,36,0.00,,---,0.00,VWS V14.01,2013-04-08 11:25:00,
2013-04-08 13:30:00,51.3,25.2,29.85,WNW,286,8.7,10.5,36,0.00,,---,0.00,VWS V14.01,2013-04-08 11:30:00,
2013-04-08 13:35:00,51.1,25.1,29.85,NE,47,0.0,4.5,36,0.00,,---,0.00,VWS V14.01,2013-04-08 11:35:00,
2013-04-08 13:40:00,50.5,24.6,29.85,SE,145,4.9,7.4,36,0.00,,---,0.00,VWS V14.01,2013-04-08 11:40:00,
2013-04-08 13:45:00,51.1,25.1,29.85,South,170,0.0,3.6,36,0.00,,---,0.00,VWS V14.01,2013-04-08 11:45:00,
2013-04-08 13:50:00,50.7,24.8,29.85,South,174,5.4,7.4,36,0.00,,---,0.00,VWS V14.01,2013-04-08 11:50:00,
2013-04-08 13:55:00,50.5,24.6,29.85,SSE,160,3.6,3.6,36,0.00,,---,0.00,VWS V14.01,2013-04-08 11:55:00,
2013-04-08 14:00:00,50.5,24.6,29.85,South,171,0.0,3.6,36,0.00,,---,0.00,VWS V14.01,2013-04-08 12:00:00,
2013-04-08 14:05:00,50.7,24.8,29.85,SW,219,0.0,3.1,36,0.00,,---,0.00,VWS V14.01,2013-04-08 12:05:00,
2013-04-08 14:10:00,50.7,24.8,29.83,South,178,3.1,4.0,36,0.00,,---,0.00,VWS V14.01,2013-04-08 12:10:00,
2013-04-08 14:15:00,50.9,24.9,29.83,South,178,0.0,4.5,36,0.00,,---,0.00,VWS V14.01,2013-04-08 12:15:00,
2013-04-08 14:20:00,51.1,25.1,29.83,West,275,3.6,4.5,36,0.00,,---,0.00,VWS V14.01,2013-04-08 12:20:00,
2013-04-08 14:25:00,51.3,25.2,29.83,SSE,150,2.7,2.7,36,0.00,,---,0.00,VWS V14.01,2013-04-08 12:25:00,
2013-04-08 14:30:00,51.3,25.2,29.83,SE,136,6.7,6.7,36,0.00,,---,0.00,VWS V14.01,2013-04-08 12:30:00,
2013-04-08 14:35:00,50.9,24.9,29.83,WNW,292,5.4,6.7,36,0.00,,---,0.00,VWS V14.01,2013-04-08 12:35:00,
2013-04-08 14:40:00,51.1,25.1,29.83,SSE,156,0.0,0.0,36,0.00,,---,0.00,VWS V14.01,2013-04-08 12:40:00,
2013-04-08 14:45:00,51.1,25.1,29.83,South,181,0.0,4.0,36,0.00,,---,0.00,VWS V14.01,2013-04-08 12:45:00,
2013-04-08 14:50:00,51.4,25.4,29.83,South,172,2.7,2.7,36,0.00,,---,0.00,VWS V14.01,2013-04-08 12:50:00,
2013-04-08 14:55:00,51.6,25.6,29.83,South,172,0.0,0.0,36,0.00,,---,0.00,VWS V14.01,2013-04-08 12:55:00,
2013-04-08 15:00:00,51.6,25.6,29.83,West,272,2.7,5.4,36,0.00,,---,0.00,VWS V14.01,2013-04-08 13:00:00,
2013-04-08 15:05:00,51.6,25.6,29.83,SE,127,0.0,4.0,36,0.00,,---,0.00,VWS V14.01,2013-04-08 13:05:00,
2013-04-08 15:10:00,51.8,25.7,29.83,West,281,3.1,4.0,36,0.00,,---,0.00,VWS V14.01,2013-04-08 13:10:00,
2013-04-08 15:15:00,52.3,26.2,29.83,SSE,155,3.6,4.0,36,0.00,,---,0.00,VWS V14.01,2013-04-08 13:15:00,
2013-04-08 15:20:00,52.3,26.2,29.83,South,169,0.0,2.7,36,0.00,,---,0.00,VWS V14.01,2013-04-08 13:20:00,
2013-04-08 15:25:00,52.2,26.0,29.83,SSE,160,3.6,3.6,36,0.00,,---,0.00,VWS V14.01,2013-04-08 13:25:00,
2013-04-08 15:30:00,52.2,26.0,29.83,SE,140,3.6,4.9,36,0.00,,---,0.00,VWS V14.01,2013-04-08 13:30:00,
2013-04-08 15:35:00,52.3,26.2,29.83,ESE,123,4.0,4.5,36,0.00,,---,0.00,VWS V14.01,2013-04-08 13:35:00,
2013-04-08 15:40:00,52.3,26.2,29.83,SSW,194,3.1,5.4,36,0.00,,---,0.00,VWS V14.01,2013-04-08 13:40:00,
2013-04-08 15:45:00,52.2,26.0,29.83,WNW,283,0.0,4.9,36,0.00,,---,0.00,VWS V14.01,2013-04-08 13:45:00,
2013-04-08 15:50:00,51.8,25.7,29.83,SE,141,0.0,3.1,36,0.00,,---,0.00,VWS V14.01,2013-04-08 13:50:00,
2013-04-08 15:55:00,51.8,25.7,29.83,SSE,164,0.0,3.6,36,0.00,,---,0.00,VWS V14.01,2013-04-08 13:55:00,
2013-04-08 16:00:00,52.0,26.5,29.83,SW,219,0.0,3.1,37,0.00,,---,0.00,VWS V14.01,2013-04-08 14:00:00,
2013-04-08 16:05:00,52.0,26.5,29.83,SW,221,0.0,0.0,37,0.00,,---,0.00,VWS V14.01,2013-04-08 14:05:00,
2013-04-08 16:10:00,52.0,26.5,29.83,SE,141,0.0,4.9,37,0.00,,---,0.00,VWS V14.01,2013-04-08 14:10:00,
2013-04-08 16:16:00,52.2,26.7,29.83,SSE,151,0.0,4.5,37,0.00,,---,0.00,VWS V14.01,2013-04-08 14:16:00,
2013-04-08 16:21:00,52.2,26.7,29.83,SSE,165,2.7,2.7,37,0.00,,---,0.00,VWS V14.01,2013-04-08 14:21:00,
2013-04-08 16:26:00,52.2,26.7,29.80,SE,137,0.0,4.5,37,0.00,,---,0.00,VWS V14.01,2013-04-08 14:26:00,
2013-04-08 16:31:00,52.0,26.5,29.80,SSE,160,0.0,4.9,37,0.00,,---,0.00,VWS V14.01,2013-04-08 14:31:00,
2013-04-08 16:36:00,51.8,27.0,29.80,NW,317,2.7,3.6,38,0.00,,---,0.00,VWS V14.01,2013-04-08 14:36:00,
2013-04-08 16:41:00,51.6,26.9,29.80,SE,134,4.0,4.0,38,0.00,,---,0.00,VWS V14.01,2013-04-08 14:41:00,
2013-04-08 16:46:00,51.4,26.7,29.80,SSE,164,2.7,4.9,38,0.00,,---,0.00,VWS V14.01,2013-04-08 14:46:00,
2013-04-08 16:51:00,51.3,26.5,29.80,SSE,154,3.6,6.3,38,0.00,,---,0.00,VWS V14.01,2013-04-08 14:51:00,
2013-04-08 16:56:00,51.1,27.0,29.80,SSE,159,4.5,4.5,39,0.00,,---,0.00,VWS V14.01,2013-04-08 14:56:00,
2013-04-08 17:01:00,51.1,27.0,29.80,West,275,0.0,4.9,39,0.00,,---,0.00,VWS V14.01,2013-04-08 15:01:00,
2013-04-08 17:06:00,51.1,27.0,29.80,SSE,155,0.0,3.6,39,0.00,,---,0.00,VWS V14.01,2013-04-08 15:06:00,
2013-04-08 17:11:00,51.1,27.0,29.80,SSE,155,2.7,3.1,39,0.00,,---,0.00,VWS V14.01,2013-04-08 15:11:00,
2013-04-08 17:16:00,51.1,27.0,29.80,South,170,0.0,4.5,39,0.00,,---,0.00,VWS V14.01,2013-04-08 15:16:00,
2013-04-08 17:20:00,51.1,27.0,29.80,SSE,149,0.0,2.7,39,0.00,,---,0.00,VWS V14.01,2013-04-08 15:20:00,
2013-04-08 17:25:00,50.7,26.7,29.80,SSE,158,0.0,2.7,39,0.00,,---,0.00,VWS V14.01,2013-04-08 15:25:00,
2013-04-08 17:31:00,50.5,27.1,29.80,South,178,0.0,2.7,40,0.00,,---,0.00,VWS V14.01,2013-04-08 15:31:00,
2013-04-08 17:36:00,50.5,27.1,29.80,South,169,3.6,3.6,40,0.00,,---,0.00,VWS V14.01,2013-04-08 15:36:00,
2013-04-08 17:41:00,50.4,27.6,29.80,SSE,167,0.0,4.5,41,0.00,,---,0.00,VWS V14.01,2013-04-08 15:41:00,
2013-04-08 17:46:00,50.2,27.4,29.80,SSE,153,0.0,6.3,41,0.00,,---,0.00,VWS V14.01,2013-04-08 15:46:00,
2013-04-08 17:51:00,50.0,27.8,29.80,SSE,153,0.0,4.5,42,0.00,,---,0.00,VWS V14.01,2013-04-08 15:51:00,
2013-04-08 17:56:00,49.8,27.7,29.80,South,175,4.5,5.4,42,0.00,,---,0.00,VWS V14.01,2013-04-08 15:56:00,
2013-04-08 18:01:00,49.6,27.5,29.80,SE,136,0.0,5.8,42,0.00,,---,0.00,VWS V14.01,2013-04-08 16:01:00,
2013-04-08 18:07:00,49.5,27.9,29.83,SSE,162,2.7,3.6,43,0.00,,---,0.00,VWS V14.01,2013-04-08 16:07:00,
2013-04-08 18:12:00,49.1,27.6,29.83,SSE,155,0.0,3.1,43,0.00,,---,0.00,VWS V14.01,2013-04-08 16:12:00,
2013-04-08 18:17:00,48.9,28.0,29.83,South,172,0.0,4.5,44,0.00,,---,0.00,VWS V14.01,2013-04-08 16:17:00,
2013-04-08 18:22:00,48.7,27.8,29.83,SSE,163,0.0,4.5,44,0.00,,---,0.00,VWS V14.01,2013-04-08 16:22:00,
2013-04-08 18:27:00,48.6,27.6,29.83,South,177,0.0,0.0,44,0.00,,---,0.00,VWS V14.01,2013-04-08 16:27:00,
2013-04-08 18:32:00,48.4,28.0,29.83,South,177,0.0,2.7,45,0.00,,---,0.00,VWS V14.01,2013-04-08 16:32:00,
2013-04-08 18:37:00,48.2,27.9,29.80,SSE,168,0.0,0.0,45,0.00,,---,0.00,VWS V14.01,2013-04-08 16:37:00,
2013-04-08 18:42:00,48.2,27.9,29.80,South,169,0.0,2.7,45,0.00,,---,0.00,VWS V14.01,2013-04-08 16:42:00,
2013-04-08 18:47:00,48.0,27.7,29.80,South,173,3.1,3.6,45,0.00,,---,0.00,VWS V14.01,2013-04-08 16:47:00,
2013-04-08 18:52:00,48.0,27.7,29.80,South,170,3.6,5.4,45,0.00,,---,0.00,VWS V14.01,2013-04-08 16:52:00,
2013-04-08 18:57:00,48.0,27.7,29.80,South,173,0.0,5.4,45,0.00,,---,0.00,VWS V14.01,2013-04-08 16:57:00,
2013-04-08 19:02:00,47.8,27.5,29.80,South,169,2.7,5.4,45,0.00,,---,0.00,VWS V14.01,2013-04-08 17:02:00,
2013-04-08 19:07:00,47.7,27.9,29.80,South,173,3.1,4.0,46,0.00,,---,0.00,VWS V14.01,2013-04-08 17:07:00,
2013-04-08 19:12:00,47.5,27.8,29.80,SSE,166,0.0,3.1,46,0.00,,---,0.00,VWS V14.01,2013-04-08 17:12:00,
2013-04-08 19:17:00,47.3,27.6,29.80,South,171,0.0,5.8,46,0.00,,---,0.00,VWS V14.01,2013-04-08 17:17:00,
2013-04-08 19:22:00,47.3,28.1,29.80,SSE,163,0.0,5.4,47,0.00,,---,0.00,VWS V14.01,2013-04-08 17:22:00,
2013-04-08 19:27:00,47.1,27.9,29.80,SSE,167,3.6,5.4,47,0.00,,---,0.00,VWS V14.01,2013-04-08 17:27:00,
2013-04-08 19:32:00,46.9,27.8,29.80,SSE,166,0.0,4.5,47,0.00,,---,0.00,VWS V14.01,2013-04-08 17:32:00,
2013-04-08 19:38:00,46.8,28.1,29.80,South,169,2.7,3.6,48,0.00,,---,0.00,VWS V14.01,2013-04-08 17:38:00,
2013-04-08 19:43:00,46.8,28.1,29.80,South,169,0.0,3.6,48,0.00,,---,0.00,VWS V14.01,2013-04-08 17:43:00,
2013-04-08 19:48:00,46.6,28.0,29.80,South,169,0.0,0.0,48,0.00,,---,0.00,VWS V14.01,2013-04-08 17:48:00,
2013-04-08 19:53:00,46.6,28.0,29.80,South,172,5.4,5.4,48,0.00,,---,0.00,VWS V14.01,2013-04-08 17:53:00,
2013-04-08 19:58:00,46.4,27.8,29.80,South,173,0.0,5.4,48,0.00,,---,0.00,VWS V14.01,2013-04-08 17:58:00,
2013-04-08 20:03:00,46.4,28.3,29.80,SSE,166,0.0,3.1,49,0.00,,---,0.00,VWS V14.01,2013-04-08 18:03:00,
2013-04-08 20:08:00,46.4,28.3,29.83,SSE,166,0.0,3.1,49,0.00,,---,0.00,VWS V14.01,2013-04-08 18:08:00,
2013-04-08 20:13:00,46.4,28.3,29.83,SSE,166,2.7,2.7,49,0.00,,---,0.00,VWS V14.01,2013-04-08 18:13:00,
2013-04-08 20:18:00,46.4,28.3,29.83,SSE,168,0.0,3.6,49,0.00,,---,0.00,VWS V14.01,2013-04-08 18:18:00,
2013-04-08 20:23:00,46.4,28.3,29.83,South,170,4.5,4.5,49,0.00,,---,0.00,VWS V14.01,2013-04-08 18:23:00,
2013-04-08 20:28:00,46.4,28.3,29.83,South,170,4.5,4.5,49,0.00,,---,0.00,VWS V14.01,2013-04-08 18:28:00,
2013-04-08 20:33:00,46.2,28.1,29.83,South,171,3.1,4.0,49,0.00,,---,0.00,VWS V14.01,2013-04-08 18:33:00,
2013-04-08 20:38:00,46.2,28.6,29.83,South,171,4.5,5.4,50,0.00,,---,0.00,VWS V14.01,2013-04-08 18:38:00,
2013-04-08 20:43:00,46.0,28.5,29.83,SSE,168,4.9,5.8,50,0.00,,---,0.00,VWS V14.01,2013-04-08 18:43:00,
2013-04-08 20:48:00,45.9,28.3,29.83,South,172,3.1,3.1,50,0.00,,---,0.00,VWS V14.01,2013-04-08 18:48:00,
2013-04-08 20:53:00,45.9,28.8,29.83,South,172,3.1,4.9,51,0.00,,---,0.00,VWS V14.01,2013-04-08 18:53:00,
2013-04-08 20:58:00,45.9,28.8,29.83,South,173,2.7,4.0,51,0.00,,---,0.00,VWS V14.01,2013-04-08 18:58:00,
2013-04-08 21:03:00,45.7,28.6,29.83,SSE,159,4.9,5.8,51,0.00,,---,0.00,VWS V14.01,2013-04-08 19:03:00,
2013-04-08 21:08:00,45.5,28.4,29.83,South,170,3.6,4.9,51,0.00,,---,0.00,VWS V14.01,2013-04-08 19:08:00,
2013-04-08 21:13:00,45.5,28.4,29.83,South,172,3.6,6.3,51,0.00,,---,0.00,VWS V14.01,2013-04-08 19:13:00,
2013-04-08 21:18:00,45.5,28.4,29.83,South,173,2.7,4.9,51,0.00,,---,0.00,VWS V14.01,2013-04-08 19:18:00,
2013-04-08 21:23:00,45.5,28.4,29.83,SSE,167,4.0,4.5,51,0.00,,---,0.00,VWS V14.01,2013-04-08 19:23:00,
2013-04-08 21:28:00,45.5,28.4,29.83,South,170,2.7,4.5,51,0.00,,---,0.00,VWS V14.01,2013-04-08 19:28:00,
2013-04-08 21:33:00,45.5,28.4,29.83,South,170,3.1,4.5,51,0.00,,---,0.00,VWS V14.01,2013-04-08 19:33:00,
2013-04-08 21:38:00,45.5,28.4,29.80,South,170,4.0,4.5,51,0.00,,---,0.00,VWS V14.01,2013-04-08 19:38:00,
2013-04-08 21:43:00,45.5,28.4,29.80,South,174,4.5,5.8,51,0.00,,---,0.00,VWS V14.01,2013-04-08 19:43:00,
2013-04-08 21:48:00,45.5,28.9,29.80,South,174,4.5,5.8,52,0.00,,---,0.00,VWS V14.01,2013-04-08 19:48:00,
2013-04-08 21:53:00,45.5,28.9,29.83,SSE,166,4.0,4.0,52,0.00,,---,0.00,VWS V14.01,2013-04-08 19:53:00,
2013-04-08 21:58:00,45.3,28.8,29.83,South,173,3.6,5.4,52,0.00,,---,0.00,VWS V14.01,2013-04-08 19:58:00,
2013-04-08 22:03:00,45.5,28.9,29.83,South,174,0.0,5.4,52,0.00,,---,0.00,VWS V14.01,2013-04-08 20:03:00,
2013-04-08 22:08:00,45.5,28.9,29.80,South,174,4.0,4.9,52,0.00,,---,0.00,VWS V14.01,2013-04-08 20:08:00,
2013-04-08 22:13:00,45.5,28.9,29.80,South,174,3.6,4.5,52,0.00,,---,0.00,VWS V14.01,2013-04-08 20:13:00,
2013-04-08 22:18:00,45.5,28.9,29.80,South,174,0.0,3.6,52,0.00,,---,0.00,VWS V14.01,2013-04-08 20:18:00,
2013-04-08 22:23:00,45.5,29.4,29.83,South,174,3.1,3.1,53,0.00,,---,0.00,VWS V14.01,2013-04-08 20:23:00,
2013-04-08 22:28:00,45.5,29.4,29.83,South,174,0.0,0.0,53,0.00,,---,0.00,VWS V14.01,2013-04-08 20:28:00,
2013-04-08 22:33:00,45.3,29.2,29.83,South,174,0.0,2.7,53,0.00,,---,0.00,VWS V14.01,2013-04-08 20:33:00,
2013-04-08 22:38:00,45.5,29.4,29.83,South,174,0.0,3.6,53,0.00,,---,0.00,VWS V14.01,2013-04-08 20:38:00,
2013-04-08 22:43:00,45.5,29.4,29.83,South,174,2.7,2.7,53,0.00,,---,0.00,VWS V14.01,2013-04-08 20:43:00,
2013-04-08 22:48:00,45.3,29.2,29.83,South,174,3.1,4.9,53,0.00,,---,0.00,VWS V14.01,2013-04-08 20:48:00,
2013-04-08 22:53:00,45.3,29.2,29.83,South,174,3.6,4.5,53,0.00,,---,0.00,VWS V14.01,2013-04-08 20:53:00,
2013-04-08 22:58:00,45.3,29.2,29.83,South,174,3.1,4.9,53,0.00,,---,0.00,VWS V14.01,2013-04-08 20:58:00,
2013-04-08 23:03:00,45.3,29.2,29.83,South,174,0.0,4.0,53,0.00,,---,0.00,VWS V14.01,2013-04-08 21:03:00,
2013-04-08 23:08:00,45.3,29.2,29.83,South,174,0.0,2.7,53,0.00,,---,0.00,VWS V14.01,2013-04-08 21:08:00,
2013-04-08 23:13:00,45.3,29.7,29.83,South,174,2.7,4.5,54,0.00,,---,0.00,VWS V14.01,2013-04-08 21:13:00,
2013-04-08 23:18:00,45.1,29.5,29.83,South,174,2.7,2.7,54,0.00,,---,0.00,VWS V14.01,2013-04-08 21:18:00,
2013-04-08 23:23:00,45.1,30.0,29.83,South,174,2.7,3.6,55,0.00,,---,0.00,VWS V14.01,2013-04-08 21:23:00,
2013-04-08 23:28:00,45.0,30.2,29.83,South,174,3.1,5.4,56,0.00,,---,0.00,VWS V14.01,2013-04-08 21:28:00,
2013-04-08 23:33:00,44.8,30.5,29.83,SSE,165,0.0,3.6,57,0.00,,---,0.00,VWS V14.01,2013-04-08 21:33:00,
2013-04-08 23:38:00,44.6,30.8,29.83,South,170,0.0,5.8,58,0.00,,---,0.00,VWS V14.01,2013-04-08 21:38:00,
2013-04-08 23:43:00,44.6,31.2,29.83,South,171,4.0,5.4,59,0.00,,---,0.00,VWS V14.01,2013-04-08 21:43:00,
2013-04-08 23:48:00,44.6,31.6,29.83,SSE,167,4.9,6.3,60,0.00,,---,0.00,VWS V14.01,2013-04-08 21:48:00,
2013-04-08 23:53:00,44.4,31.4,29.83,South,169,3.6,4.9,60,0.00,,---,0.00,VWS V14.01,2013-04-08 21:53:00,
2013-04-08 23:58:00,44.2,32.1,29.83,South,169,4.9,6.7,62,0.00,,---,0.00,VWS V14.01,2013-04-08 21:58:00,